CDT,Max TemperatureF,Mean TemperatureF,Min TemperatureF,Max Dew PointF,MeanDew PointF,Min DewpointF,Max Humidity, Mean Humidity, Min Humidity, Max Sea Level PressureIn, Mean Sea Level PressureIn, Min Sea Level PressureIn, Max VisibilityMiles, Mean VisibilityMiles, Min VisibilityMiles, Max Wind SpeedMPH, Mean Wind SpeedMPH, Max Gust SpeedMPH,PrecipitationIn, CloudCover, Events, WindDirDegrees
2013-10-1,80,66,53,54,44,34,82,49,20,30.00,29.89,29.76,10,10,10,14,8,18,0.00,0,,288
2013-10-2,84,65,46,63,48,36,76,53,27,30.04,29.96,29.85,10,10,9,16,7,28,0.00,3,,138
2013-10-3,78,69,60,64,60,55,94,76,47,29.86,29.82,29.78,10,10,5,13,6,17,0.00,4,Thunderstorm,201
2013-10-4,73,66,60,70,62,57,100,88,69,29.93,29.82,29.69,10,9,3,16,9,25,1.09,5,Thunderstorm,106
2013-10-5,64,53,42,57,38,34,82,62,44,29.90,29.83,29.76,10,10,10,20,11,29,0.01,4,,230
2013-10-6,50,46,41,46,41,36,93,84,71,29.92,29.79,29.74,10,9,2,14,6,23,0.12,7,,286
2013-10-7,73,56,39,48,42,36,87,65,33,30.02,29.98,29.93,10,10,10,15,4,24,0.01,0,,263
2013-10-8,77,64,50,46,43,41,71,51,29,30.02,29.98,29.92,10,10,10,25,10,32,0.00,0,,189
2013-10-9,75,63,51,50,47,45,77,57,36,30.08,30.04,30.01,10,10,10,16,11,23,0.00,0,,165
2013-10-10,78,64,51,54,48,45,77,55,36,30.06,29.98,29.87,10,10,10,15,8,28,0.00,0,,164
2013-10-11,71,63,53,61,55,46,88,73,59,29.88,29.78,29.70,10,10,9,22,13,36,0.09,2,,166
2013-10-12,64,52,41,46,36,28,82,57,27,30.26,30.05,29.86,10,10,10,21,8,26,0.09,0,,262
2013-10-13,62,47,32,36,32,28,93,60,30,30.46,30.37,30.26,10,10,5,9,2,,0.00,0,,83
2013-10-14,60,48,37,48,36,30,88,60,36,30.36,30.14,29.84,10,8,1,22,10,29,0.63,5,Thunderstorm,127
2013-10-15,55,50,44,54,44,39,94,83,76,29.92,29.82,29.73,10,10,7,22,14,30,0.05,8,,247
2013-10-16,51,44,35,43,39,34,93,82,58,30.01,29.97,29.92,10,10,5,13,7,21,0.00,6,,304
2013-10-17,60,46,33,50,36,30,100,73,36,29.97,29.89,29.81,10,10,2,14,4,22,0.02,2,,269
2013-10-18,51,43,35,36,30,25,87,64,35,30.07,30.00,29.94,10,10,10,12,7,18,0.00,3,,285
2013-10-19,55,42,30,41,32,27,93,71,44,29.94,29.84,29.78,10,10,9,17,7,28,0.01,5,,254
2013-10-20,60,48,35,39,33,27,76,62,45,29.97,29.78,29.69,10,10,10,20,8,26,0.00,6,,244
2013-10-21,48,39,30,34,27,21,87,66,39,30.06,30.01,29.96,10,10,10,18,6,25,0.00,6,,292
2013-10-22,42,38,33,34,29,25,93,74,53,30.09,30.00,29.92,10,9,2,13,7,17,0.12,8,,17
2013-10-23,39,34,28,36,28,25,93,77,65,30.15,30.09,30.07,10,10,10,10,4,,0.00,6,,289
2013-10-24,46,38,30,30,27,25,87,68,43,30.37,30.29,30.15,10,10,10,13,6,20,0.00,6,,317
2013-10-25,55,39,23,34,28,19,93,65,41,30.39,30.22,29.97,10,10,9,24,7,31,0.00,1,,219
2013-10-26,48,38,28,34,28,21,93,59,40,30.17,30.09,29.95,10,10,10,18,9,26,0.00,0,,311
2013-10-27,64,44,24,36,29,19,93,63,34,30.12,29.96,29.81,10,10,9,20,5,25,0.00,0,,215
2013-10-28,50,42,35,36,31,28,81,69,54,30.32,30.23,30.02,10,10,10,21,11,25,0.00,0,,56
2013-10-29,55,46,37,45,37,30,81,72,62,30.31,30.15,30.01,10,10,10,17,12,22,0.00,7,,115
2013-10-30,64,57,50,55,51,45,100,88,68,30.01,29.86,29.69,10,5,0,23,7,30,0.10,7,Thunderstorm,147
2013-10-31,48,42,37,46,37,34,93,84,71,29.70,29.58,29.47,10,10,3,12,8,18,0.00,8,,294